Jutiapa, Guatemala
Current Conditions -  °F | °C
As of 1:50 PM on Monday 24 Nov 2014 (Local Time) from MSSS Reporting Station
Broken Clouds Broken Clouds  
Wind Chill: 84°   Ceiling: 3700
Heat Index: 91°   Visibility: 6mi
Dew Point: 73°   Wind: 6mph
Humidity: 70%   Direction: 100°E
Pressure: 29.88"   Gusts: NA
Location:  14.17°N, 89.5°W
Report Text: MSSS 241950Z 10005KT 9999 BKN037 29/23 Q1012 A2991
Loading
Personal Weather Stations






























Interactive Weather Map New forecast layout! Learn more

10-Day Weather Forecast

Advertisements
Track Severe Weather on mobile